sensor_id;sensor_type;location;lat;lon;timestamp;P1;durP1;ratioP1;P2;durP2;ratioP2
37633;SDS011;32048;49.902;22.508;2022-08-19T00:01:51;41.63;;;34.05;;
37633;SDS011;32048;49.902;22.508;2022-08-19T00:04:20;40.20;;;30.30;;
37633;SDS011;32048;49.902;22.508;2022-08-19T00:06:50;40.80;;;32.30;;
37633;SDS011;32048;49.902;22.508;2022-08-19T00:09:18;39.47;;;33.08;;
37633;SDS011;32048;49.902;22.508;2022-08-19T00:11:46;38.17;;;32.00;;
37633;SDS011;32048;49.902;22.508;2022-08-19T00:14:14;44.92;;;33.38;;
37633;SDS011;32048;49.902;22.508;2022-08-19T00:16:44;41.40;;;33.15;;
37633;SDS011;32048;49.902;22.508;2022-08-19T00:19:13;38.75;;;32.58;;
37633;SDS011;32048;49.902;22.508;2022-08-19T00:21:41;44.63;;;33.13;;
37633;SDS011;32048;49.902;22.508;2022-08-19T00:24:09;44.85;;;33.47;;
37633;SDS011;32048;49.902;22.508;2022-08-19T00:26:38;41.63;;;34.90;;
37633;SDS011;32048;49.902;22.508;2022-08-19T00:29:07;45.42;;;38.05;;
37633;SDS011;32048;49.902;22.508;2022-08-19T00:31:35;43.25;;;36.15;;
37633;SDS011;32048;49.902;22.508;2022-08-19T00:34:02;43.95;;;34.33;;
37633;SDS011;32048;49.902;22.508;2022-08-19T00:36:30;44.08;;;34.85;;
37633;SDS011;32048;49.902;22.508;2022-08-19T00:38:59;43.40;;;33.17;;
37633;SDS011;32048;49.902;22.508;2022-08-19T00:41:27;39.75;;;32.05;;
37633;SDS011;32048;49.902;22.508;2022-08-19T00:44:03;38.75;;;31.92;;
37633;SDS011;32048;49.902;22.508;2022-08-19T00:46:34;37.30;;;29.58;;
37633;SDS011;32048;49.902;22.508;2022-08-19T00:49:05;36.22;;;30.08;;
37633;SDS011;32048;49.902;22.508;2022-08-19T00:51:36;36.55;;;31.67;;
37633;SDS011;32048;49.902;22.508;2022-08-19T00:54:03;39.22;;;31.98;;
37633;SDS011;32048;49.902;22.508;2022-08-19T00:56:30;39.33;;;29.65;;
37633;SDS011;32048;49.902;22.508;2022-08-19T00:58:58;38.78;;;29.73;;
37633;SDS011;32048;49.902;22.508;2022-08-19T01:01:26;39.00;;;30.42;;
37633;SDS011;32048;49.902;22.508;2022-08-19T01:03:53;36.67;;;29.33;;
37633;SDS011;32048;49.902;22.508;2022-08-19T01:06:24;31.58;;;28.13;;
37633;SDS011;32048;49.902;22.508;2022-08-19T01:08:53;34.63;;;28.27;;
37633;SDS011;32048;49.902;22.508;2022-08-19T01:11:21;34.20;;;29.45;;
37633;SDS011;32048;49.902;22.508;2022-08-19T01:13:48;39.13;;;29.77;;
37633;SDS011;32048;49.902;22.508;2022-08-19T01:16:19;43.85;;;32.85;;
37633;SDS011;32048;49.902;22.508;2022-08-19T01:18:47;42.55;;;33.25;;
37633;SDS011;32048;49.902;22.508;2022-08-19T01:24:13;44.05;;;34.60;;
37633;SDS011;32048;49.902;22.508;2022-08-19T01:26:43;43.25;;;35.53;;
37633;SDS011;32048;49.902;22.508;2022-08-19T01:29:12;43.20;;;34.70;;
37633;SDS011;32048;49.902;22.508;2022-08-19T01:31:40;45.22;;;33.78;;
37633;SDS011;32048;49.902;22.508;2022-08-19T01:34:07;39.85;;;33.03;;
37633;SDS011;32048;49.902;22.508;2022-08-19T01:36:42;49.47;;;34.28;;
37633;SDS011;32048;49.902;22.508;2022-08-19T01:39:16;45.28;;;35.13;;
37633;SDS011;32048;49.902;22.508;2022-08-19T01:41:46;41.75;;;35.45;;
37633;SDS011;32048;49.902;22.508;2022-08-19T01:44:13;42.45;;;33.35;;
37633;SDS011;32048;49.902;22.508;2022-08-19T01:46:45;47.72;;;33.75;;
37633;SDS011;32048;49.902;22.508;2022-08-19T01:49:14;43.08;;;32.90;;
37633;SDS011;32048;49.902;22.508;2022-08-19T01:51:42;41.63;;;34.05;;
37633;SDS011;32048;49.902;22.508;2022-08-19T01:54:10;47.30;;;35.38;;
37633;SDS011;32048;49.902;22.508;2022-08-19T01:59:17;40.75;;;33.30;;
37633;SDS011;32048;49.902;22.508;2022-08-19T02:01:47;42.17;;;32.58;;
37633;SDS011;32048;49.902;22.508;2022-08-19T02:04:14;42.53;;;31.02;;
37633;SDS011;32048;49.902;22.508;2022-08-19T02:06:41;38.70;;;31.65;;
37633;SDS011;32048;49.902;22.508;2022-08-19T02:09:08;41.40;;;31.08;;
37633;SDS011;32048;49.902;22.508;2022-08-19T02:11:37;34.88;;;29.63;;
37633;SDS011;32048;49.902;22.508;2022-08-19T02:14:06;44.90;;;31.48;;
37633;SDS011;32048;49.902;22.508;2022-08-19T02:16:34;42.33;;;31.20;;
37633;SDS011;32048;49.902;22.508;2022-08-19T02:19:03;41.35;;;31.20;;
37633;SDS011;32048;49.902;22.508;2022-08-19T02:21:30;36.38;;;29.77;;
37633;SDS011;32048;49.902;22.508;2022-08-19T02:23:57;41.08;;;33.17;;
37633;SDS011;32048;49.902;22.508;2022-08-19T02:26:25;38.35;;;32.15;;
37633;SDS011;32048;49.902;22.508;2022-08-19T02:28:53;42.97;;;31.95;;
37633;SDS011;32048;49.902;22.508;2022-08-19T02:31:21;37.65;;;31.90;;
37633;SDS011;32048;49.902;22.508;2022-08-19T02:33:52;41.72;;;33.47;;
37633;SDS011;32048;49.902;22.508;2022-08-19T02:36:22;40.83;;;32.70;;
37633;SDS011;32048;49.902;22.508;2022-08-19T02:38:50;39.97;;;31.90;;
37633;SDS011;32048;49.902;22.508;2022-08-19T02:41:22;46.22;;;33.58;;
37633;SDS011;32048;49.902;22.508;2022-08-19T02:43:53;41.83;;;32.80;;
37633;SDS011;32048;49.902;22.508;2022-08-19T02:46:47;42.53;;;33.20;;
37633;SDS011;32048;49.902;22.508;2022-08-19T02:49:18;44.28;;;34.15;;
37633;SDS011;32048;49.902;22.508;2022-08-19T02:51:46;43.97;;;32.28;;
37633;SDS011;32048;49.902;22.508;2022-08-19T02:54:13;37.33;;;31.08;;
37633;SDS011;32048;49.902;22.508;2022-08-19T02:56:42;51.33;;;34.43;;
37633;SDS011;32048;49.902;22.508;2022-08-19T02:59:09;42.20;;;33.92;;
37633;SDS011;32048;49.902;22.508;2022-08-19T03:01:38;43.97;;;31.45;;
37633;SDS011;32048;49.902;22.508;2022-08-19T03:04:09;42.67;;;31.50;;
37633;SDS011;32048;49.902;22.508;2022-08-19T03:06:41;41.60;;;31.95;;
37633;SDS011;32048;49.902;22.508;2022-08-19T03:09:11;43.90;;;32.50;;
37633;SDS011;32048;49.902;22.508;2022-08-19T03:11:38;45.03;;;33.47;;
37633;SDS011;32048;49.902;22.508;2022-08-19T03:14:06;42.38;;;33.70;;
37633;SDS011;32048;49.902;22.508;2022-08-19T03:16:40;44.88;;;33.58;;
37633;SDS011;32048;49.902;22.508;2022-08-19T03:19:09;42.85;;;32.33;;
37633;SDS011;32048;49.902;22.508;2022-08-19T03:21:36;42.70;;;33.10;;
37633;SDS011;32048;49.902;22.508;2022-08-19T03:24:05;42.45;;;32.83;;
37633;SDS011;32048;49.902;22.508;2022-08-19T03:26:37;47.22;;;34.58;;
37633;SDS011;32048;49.902;22.508;2022-08-19T03:29:06;43.50;;;34.22;;
37633;SDS011;32048;49.902;22.508;2022-08-19T03:31:37;44.45;;;34.45;;
37633;SDS011;32048;49.902;22.508;2022-08-19T03:34:20;43.95;;;30.83;;
37633;SDS011;32048;49.902;22.508;2022-08-19T03:36:53;44.40;;;33.75;;
37633;SDS011;32048;49.902;22.508;2022-08-19T03:39:22;40.40;;;32.70;;
37633;SDS011;32048;49.902;22.508;2022-08-19T03:41:51;41.17;;;33.00;;
37633;SDS011;32048;49.902;22.508;2022-08-19T03:44:39;48.25;;;33.20;;
37633;SDS011;32048;49.902;22.508;2022-08-19T03:47:08;43.22;;;34.58;;
37633;SDS011;32048;49.902;22.508;2022-08-19T03:49:35;47.95;;;34.78;;
37633;SDS011;32048;49.902;22.508;2022-08-19T03:52:02;51.90;;;36.13;;
37633;SDS011;32048;49.902;22.508;2022-08-19T03:54:34;55.75;;;38.95;;
37633;SDS011;32048;49.902;22.508;2022-08-19T03:57:02;50.13;;;39.13;;
37633;SDS011;32048;49.902;22.508;2022-08-19T03:59:30;48.70;;;39.05;;
37633;SDS011;32048;49.902;22.508;2022-08-19T04:01:59;47.72;;;37.00;;
37633;SDS011;32048;49.902;22.508;2022-08-19T04:04:28;38.83;;;30.83;;
37633;SDS011;32048;49.902;22.508;2022-08-19T04:06:57;31.23;;;25.75;;
37633;SDS011;32048;49.902;22.508;2022-08-19T04:09:25;27.85;;;24.40;;
37633;SDS011;32048;49.902;22.508;2022-08-19T04:11:52;24.83;;;20.38;;
37633;SDS011;32048;49.902;22.508;2022-08-19T04:14:22;24.42;;;16.42;;
37633;SDS011;32048;49.902;22.508;2022-08-19T04:16:51;20.52;;;14.18;;
37633;SDS011;32048;49.902;22.508;2022-08-19T04:19:18;19.05;;;15.32;;
37633;SDS011;32048;49.902;22.508;2022-08-19T04:21:47;18.10;;;16.05;;
37633;SDS011;32048;49.902;22.508;2022-08-19T04:24:16;18.05;;;15.18;;
37633;SDS011;32048;49.902;22.508;2022-08-19T04:26:44;16.65;;;13.38;;
37633;SDS011;32048;49.902;22.508;2022-08-19T04:29:16;16.92;;;13.07;;
37633;SDS011;32048;49.902;22.508;2022-08-19T04:31:45;18.00;;;12.82;;
37633;SDS011;32048;49.902;22.508;2022-08-19T04:34:14;19.42;;;13.48;;
37633;SDS011;32048;49.902;22.508;2022-08-19T04:36:43;17.15;;;11.20;;
37633;SDS011;32048;49.902;22.508;2022-08-19T04:39:12;13.85;;;11.93;;
37633;SDS011;32048;49.902;22.508;2022-08-19T04:41:43;16.35;;;11.88;;
37633;SDS011;32048;49.902;22.508;2022-08-19T04:44:33;19.80;;;11.70;;
37633;SDS011;32048;49.902;22.508;2022-08-19T04:47:05;15.75;;;11.82;;
37633;SDS011;32048;49.902;22.508;2022-08-19T04:49:37;17.00;;;12.52;;
37633;SDS011;32048;49.902;22.508;2022-08-19T04:52:04;16.23;;;11.93;;
37633;SDS011;32048;49.902;22.508;2022-08-19T04:54:31;19.48;;;11.35;;
37633;SDS011;32048;49.902;22.508;2022-08-19T04:57:07;16.02;;;11.32;;
37633;SDS011;32048;49.902;22.508;2022-08-19T04:59:37;15.32;;;10.85;;
37633;SDS011;32048;49.902;22.508;2022-08-19T05:02:06;14.77;;;10.27;;
37633;SDS011;32048;49.902;22.508;2022-08-19T05:04:35;13.00;;;10.23;;
37633;SDS011;32048;49.902;22.508;2022-08-19T05:07:06;14.50;;;9.85;;
37633;SDS011;32048;49.902;22.508;2022-08-19T05:09:34;14.15;;;9.15;;
37633;SDS011;32048;49.902;22.508;2022-08-19T05:12:22;11.80;;;9.30;;
37633;SDS011;32048;49.902;22.508;2022-08-19T05:14:54;13.10;;;9.57;;
37633;SDS011;32048;49.902;22.508;2022-08-19T05:19:54;15.40;;;10.10;;
37633;SDS011;32048;49.902;22.508;2022-08-19T05:22:40;15.40;;;10.10;;
37633;SDS011;32048;49.902;22.508;2022-08-19T05:25:09;12.63;;;9.40;;
37633;SDS011;32048;49.902;22.508;2022-08-19T05:27:40;13.55;;;9.48;;
37633;SDS011;32048;49.902;22.508;2022-08-19T05:30:08;10.57;;;8.55;;
37633;SDS011;32048;49.902;22.508;2022-08-19T05:32:37;12.50;;;8.65;;
37633;SDS011;32048;49.902;22.508;2022-08-19T05:35:05;17.65;;;9.93;;
37633;SDS011;32048;49.902;22.508;2022-08-19T05:37:32;12.43;;;8.75;;
37633;SDS011;32048;49.902;22.508;2022-08-19T05:39:59;11.63;;;8.52;;
37633;SDS011;32048;49.902;22.508;2022-08-19T05:42:26;12.10;;;8.90;;
37633;SDS011;32048;49.902;22.508;2022-08-19T05:44:53;13.60;;;9.10;;
37633;SDS011;32048;49.902;22.508;2022-08-19T05:47:22;12.88;;;8.68;;
37633;SDS011;32048;49.902;22.508;2022-08-19T05:49:49;14.40;;;8.93;;
37633;SDS011;32048;49.902;22.508;2022-08-19T05:52:18;12.77;;;8.45;;
37633;SDS011;32048;49.902;22.508;2022-08-19T05:54:51;16.55;;;9.98;;
37633;SDS011;32048;49.902;22.508;2022-08-19T05:57:22;11.73;;;8.50;;
37633;SDS011;32048;49.902;22.508;2022-08-19T05:59:50;13.07;;;8.73;;
37633;SDS011;32048;49.902;22.508;2022-08-19T06:02:25;12.38;;;8.55;;
37633;SDS011;32048;49.902;22.508;2022-08-19T06:07:19;13.77;;;8.85;;
37633;SDS011;32048;49.902;22.508;2022-08-19T06:09:46;12.27;;;7.13;;
37633;SDS011;32048;49.902;22.508;2022-08-19T06:12:26;14.15;;;7.85;;
37633;SDS011;32048;49.902;22.508;2022-08-19T06:14:57;13.65;;;7.35;;
37633;SDS011;32048;49.902;22.508;2022-08-19T06:17:27;8.10;;;6.68;;
37633;SDS011;32048;49.902;22.508;2022-08-19T06:19:57;13.07;;;6.85;;
37633;SDS011;32048;49.902;22.508;2022-08-19T06:22:25;11.75;;;6.97;;
37633;SDS011;32048;49.902;22.508;2022-08-19T06:24:53;9.17;;;7.17;;
37633;SDS011;32048;49.902;22.508;2022-08-19T06:27:21;14.05;;;6.60;;
37633;SDS011;32048;49.902;22.508;2022-08-19T06:29:49;13.77;;;6.68;;
37633;SDS011;32048;49.902;22.508;2022-08-19T06:32:16;11.73;;;6.75;;
37633;SDS011;32048;49.902;22.508;2022-08-19T06:34:45;12.13;;;6.60;;
37633;SDS011;32048;49.902;22.508;2022-08-19T06:37:13;9.98;;;6.32;;
37633;SDS011;32048;49.902;22.508;2022-08-19T06:39:41;13.33;;;5.90;;
37633;SDS011;32048;49.902;22.508;2022-08-19T06:42:10;16.00;;;6.50;;
37633;SDS011;32048;49.902;22.508;2022-08-19T06:44:40;11.13;;;6.32;;
37633;SDS011;32048;49.902;22.508;2022-08-19T06:47:18;14.40;;;6.38;;
37633;SDS011;32048;49.902;22.508;2022-08-19T06:49:55;13.38;;;6.05;;
37633;SDS011;32048;49.902;22.508;2022-08-19T06:52:29;18.23;;;6.72;;
37633;SDS011;32048;49.902;22.508;2022-08-19T06:55:00;12.27;;;5.82;;
37633;SDS011;32048;49.902;22.508;2022-08-19T06:57:32;14.23;;;5.55;;
37633;SDS011;32048;49.902;22.508;2022-08-19T06:59:59;11.07;;;5.25;;
37633;SDS011;32048;49.902;22.508;2022-08-19T07:02:27;11.38;;;5.60;;
37633;SDS011;32048;49.902;22.508;2022-08-19T07:04:54;8.88;;;5.05;;
37633;SDS011;32048;49.902;22.508;2022-08-19T07:07:22;12.40;;;5.00;;
37633;SDS011;32048;49.902;22.508;2022-08-19T07:09:50;10.73;;;5.75;;
37633;SDS011;32048;49.902;22.508;2022-08-19T07:12:29;13.48;;;5.05;;
37633;SDS011;32048;49.902;22.508;2022-08-19T07:15:03;9.13;;;5.22;;
37633;SDS011;32048;49.902;22.508;2022-08-19T07:17:31;13.73;;;5.53;;
37633;SDS011;32048;49.902;22.508;2022-08-19T07:20:00;10.27;;;5.70;;
37633;SDS011;32048;49.902;22.508;2022-08-19T07:22:35;8.27;;;5.15;;
37633;SDS011;32048;49.902;22.508;2022-08-19T07:25:03;12.48;;;5.55;;
37633;SDS011;32048;49.902;22.508;2022-08-19T07:27:32;13.38;;;6.10;;
37633;SDS011;32048;49.902;22.508;2022-08-19T07:30:00;8.98;;;5.25;;
37633;SDS011;32048;49.902;22.508;2022-08-19T07:32:27;7.22;;;5.22;;
37633;SDS011;32048;49.902;22.508;2022-08-19T07:34:54;8.98;;;5.03;;
37633;SDS011;32048;49.902;22.508;2022-08-19T07:37:23;8.15;;;4.75;;
37633;SDS011;32048;49.902;22.508;2022-08-19T07:39:58;10.35;;;5.35;;
37633;SDS011;32048;49.902;22.508;2022-08-19T07:42:25;9.90;;;5.45;;
37633;SDS011;32048;49.902;22.508;2022-08-19T07:44:53;9.67;;;5.27;;
37633;SDS011;32048;49.902;22.508;2022-08-19T07:47:20;10.85;;;5.70;;
37633;SDS011;32048;49.902;22.508;2022-08-19T07:50:08;12.68;;;5.55;;
37633;SDS011;32048;49.902;22.508;2022-08-19T07:52:38;14.38;;;6.38;;
37633;SDS011;32048;49.902;22.508;2022-08-19T07:55:08;8.85;;;5.28;;
37633;SDS011;32048;49.902;22.508;2022-08-19T07:57:56;10.00;;;5.97;;
37633;SDS011;32048;49.902;22.508;2022-08-19T08:00:24;11.93;;;5.78;;
37633;SDS011;32048;49.902;22.508;2022-08-19T08:02:51;11.13;;;5.95;;
37633;SDS011;32048;49.902;22.508;2022-08-19T08:05:22;10.95;;;6.00;;
37633;SDS011;32048;49.902;22.508;2022-08-19T08:08:10;7.07;;;5.22;;
37633;SDS011;32048;49.902;22.508;2022-08-19T08:10:58;8.00;;;5.65;;
37633;SDS011;32048;49.902;22.508;2022-08-19T08:13:25;11.67;;;6.07;;
37633;SDS011;32048;49.902;22.508;2022-08-19T08:15:54;14.77;;;6.05;;
37633;SDS011;32048;49.902;22.508;2022-08-19T08:18:23;10.30;;;5.80;;
37633;SDS011;32048;49.902;22.508;2022-08-19T08:20:55;10.38;;;5.55;;
37633;SDS011;32048;49.902;22.508;2022-08-19T08:23:23;16.85;;;5.70;;
37633;SDS011;32048;49.902;22.508;2022-08-19T08:25:54;8.75;;;5.93;;
37633;SDS011;32048;49.902;22.508;2022-08-19T08:28:24;11.00;;;5.40;;
37633;SDS011;32048;49.902;22.508;2022-08-19T08:30:55;6.10;;;5.40;;
37633;SDS011;32048;49.902;22.508;2022-08-19T08:33:25;9.05;;;5.57;;
37633;SDS011;32048;49.902;22.508;2022-08-19T08:36:07;10.10;;;5.03;;
37633;SDS011;32048;49.902;22.508;2022-08-19T08:38:35;8.63;;;5.28;;
37633;SDS011;32048;49.902;22.508;2022-08-19T08:41:15;10.38;;;5.45;;
37633;SDS011;32048;49.902;22.508;2022-08-19T08:44:02;13.68;;;5.45;;
37633;SDS011;32048;49.902;22.508;2022-08-19T08:46:36;12.20;;;5.70;;
37633;SDS011;32048;49.902;22.508;2022-08-19T08:49:29;7.88;;;5.40;;
37633;SDS011;32048;49.902;22.508;2022-08-19T08:52:04;14.80;;;5.65;;
37633;SDS011;32048;49.902;22.508;2022-08-19T08:54:43;7.07;;;4.93;;
37633;SDS011;32048;49.902;22.508;2022-08-19T08:57:27;13.18;;;5.40;;
37633;SDS011;32048;49.902;22.508;2022-08-19T09:00:08;11.38;;;5.78;;
37633;SDS011;32048;49.902;22.508;2022-08-19T09:02:42;9.65;;;5.00;;
37633;SDS011;32048;49.902;22.508;2022-08-19T09:05:16;8.18;;;5.30;;
37633;SDS011;32048;49.902;22.508;2022-08-19T09:10:29;9.63;;;4.97;;
37633;SDS011;32048;49.902;22.508;2022-08-19T09:18:54;11.27;;;4.57;;
37633;SDS011;32048;49.902;22.508;2022-08-19T09:21:24;9.57;;;5.20;;
37633;SDS011;32048;49.902;22.508;2022-08-19T09:23:58;10.10;;;4.78;;
37633;SDS011;32048;49.902;22.508;2022-08-19T09:26:29;7.32;;;5.05;;
37633;SDS011;32048;49.902;22.508;2022-08-19T09:29:18;10.93;;;4.88;;
37633;SDS011;32048;49.902;22.508;2022-08-19T09:31:48;7.55;;;4.35;;
37633;SDS011;32048;49.902;22.508;2022-08-19T09:34:16;5.38;;;4.10;;
37633;SDS011;32048;49.902;22.508;2022-08-19T09:36:48;7.43;;;4.50;;
37633;SDS011;32048;49.902;22.508;2022-08-19T09:39:20;6.78;;;4.82;;
37633;SDS011;32048;49.902;22.508;2022-08-19T09:41:48;8.73;;;4.60;;
37633;SDS011;32048;49.902;22.508;2022-08-19T09:44:17;6.53;;;4.40;;
37633;SDS011;32048;49.902;22.508;2022-08-19T09:46:44;8.80;;;4.43;;
37633;SDS011;32048;49.902;22.508;2022-08-19T09:49:27;7.35;;;4.20;;
37633;SDS011;32048;49.902;22.508;2022-08-19T09:51:54;9.80;;;4.68;;
37633;SDS011;32048;49.902;22.508;2022-08-19T09:54:22;11.05;;;4.20;;
37633;SDS011;32048;49.902;22.508;2022-08-19T09:56:51;11.57;;;4.70;;
37633;SDS011;32048;49.902;22.508;2022-08-19T09:59:24;8.80;;;4.63;;
37633;SDS011;32048;49.902;22.508;2022-08-19T10:01:51;8.63;;;4.70;;
37633;SDS011;32048;49.902;22.508;2022-08-19T10:04:19;7.95;;;4.35;;
37633;SDS011;32048;49.902;22.508;2022-08-19T10:06:49;14.57;;;4.97;;
37633;SDS011;32048;49.902;22.508;2022-08-19T10:09:19;7.25;;;4.60;;
37633;SDS011;32048;49.902;22.508;2022-08-19T10:12:09;8.43;;;4.72;;
37633;SDS011;32048;49.902;22.508;2022-08-19T10:14:43;10.32;;;4.70;;
37633;SDS011;32048;49.902;22.508;2022-08-19T10:17:11;10.73;;;4.25;;
37633;SDS011;32048;49.902;22.508;2022-08-19T10:19:46;7.65;;;4.75;;
37633;SDS011;32048;49.902;22.508;2022-08-19T10:22:21;8.52;;;4.68;;
37633;SDS011;32048;49.902;22.508;2022-08-19T10:24:50;12.30;;;4.40;;
37633;SDS011;32048;49.902;22.508;2022-08-19T10:27:18;5.55;;;4.30;;
37633;SDS011;32048;49.902;22.508;2022-08-19T10:29:45;5.78;;;4.53;;
37633;SDS011;32048;49.902;22.508;2022-08-19T10:32:14;7.05;;;4.20;;
37633;SDS011;32048;49.902;22.508;2022-08-19T10:34:41;7.03;;;4.68;;
37633;SDS011;32048;49.902;22.508;2022-08-19T10:37:15;11.23;;;4.72;;
37633;SDS011;32048;49.902;22.508;2022-08-19T10:39:54;5.85;;;4.63;;
37633;SDS011;32048;49.902;22.508;2022-08-19T10:42:21;8.67;;;4.73;;
37633;SDS011;32048;49.902;22.508;2022-08-19T10:44:49;7.57;;;4.20;;
37633;SDS011;32048;49.902;22.508;2022-08-19T10:47:17;10.30;;;4.53;;
37633;SDS011;32048;49.902;22.508;2022-08-19T10:49:57;7.55;;;4.40;;
37633;SDS011;32048;49.902;22.508;2022-08-19T10:52:43;7.85;;;4.18;;
37633;SDS011;32048;49.902;22.508;2022-08-19T10:55:20;6.93;;;4.43;;
37633;SDS011;32048;49.902;22.508;2022-08-19T10:58:12;8.35;;;4.97;;
37633;SDS011;32048;49.902;22.508;2022-08-19T11:00:40;11.90;;;4.82;;
37633;SDS011;32048;49.902;22.508;2022-08-19T11:03:09;8.38;;;4.75;;
37633;SDS011;32048;49.902;22.508;2022-08-19T11:05:36;8.07;;;4.63;;
37633;SDS011;32048;49.902;22.508;2022-08-19T11:08:06;5.85;;;3.95;;
37633;SDS011;32048;49.902;22.508;2022-08-19T11:10:50;10.07;;;4.68;;
37633;SDS011;32048;49.902;22.508;2022-08-19T11:13:28;9.07;;;5.43;;
37633;SDS011;32048;49.902;22.508;2022-08-19T11:16:00;10.70;;;4.35;;
37633;SDS011;32048;49.902;22.508;2022-08-19T11:18:34;17.17;;;10.18;;
37633;SDS011;32048;49.902;22.508;2022-08-19T11:21:06;13.32;;;7.55;;
37633;SDS011;32048;49.902;22.508;2022-08-19T11:23:35;15.48;;;9.13;;
37633;SDS011;32048;49.902;22.508;2022-08-19T11:26:02;15.10;;;9.20;;
37633;SDS011;32048;49.902;22.508;2022-08-19T11:28:29;10.77;;;4.88;;
37633;SDS011;32048;49.902;22.508;2022-08-19T11:30:56;8.75;;;4.38;;
37633;SDS011;32048;49.902;22.508;2022-08-19T11:33:23;9.82;;;5.75;;
37633;SDS011;32048;49.902;22.508;2022-08-19T11:35:52;9.00;;;4.63;;
37633;SDS011;32048;49.902;22.508;2022-08-19T11:40:53;10.13;;;6.07;;
37633;SDS011;32048;49.902;22.508;2022-08-19T11:43:24;8.93;;;6.00;;
37633;SDS011;32048;49.902;22.508;2022-08-19T11:45:53;11.60;;;4.85;;
37633;SDS011;32048;49.902;22.508;2022-08-19T11:48:21;8.95;;;4.78;;
37633;SDS011;32048;49.902;22.508;2022-08-19T11:50:49;10.93;;;5.20;;
37633;SDS011;32048;49.902;22.508;2022-08-19T11:53:18;7.75;;;4.28;;
37633;SDS011;32048;49.902;22.508;2022-08-19T11:55:47;12.05;;;4.80;;
37633;SDS011;32048;49.902;22.508;2022-08-19T11:58:15;9.85;;;4.10;;
37633;SDS011;32048;49.902;22.508;2022-08-19T12:00:44;9.13;;;4.60;;
37633;SDS011;32048;49.902;22.508;2022-08-19T12:03:12;8.90;;;4.03;;
37633;SDS011;32048;49.902;22.508;2022-08-19T12:05:40;9.68;;;4.60;;
37633;SDS011;32048;49.902;22.508;2022-08-19T12:08:08;11.02;;;5.10;;
37633;SDS011;32048;49.902;22.508;2022-08-19T12:10:35;10.73;;;7.15;;
37633;SDS011;32048;49.902;22.508;2022-08-19T12:13:03;8.57;;;5.30;;
37633;SDS011;32048;49.902;22.508;2022-08-19T12:15:30;10.93;;;4.35;;
37633;SDS011;32048;49.902;22.508;2022-08-19T12:18:02;5.95;;;4.60;;
37633;SDS011;32048;49.902;22.508;2022-08-19T12:20:33;8.18;;;4.75;;
37633;SDS011;32048;49.902;22.508;2022-08-19T12:23:02;8.15;;;4.90;;
37633;SDS011;32048;49.902;22.508;2022-08-19T12:27:59;8.07;;;4.03;;
37633;SDS011;32048;49.902;22.508;2022-08-19T12:30:26;7.65;;;4.47;;
37633;SDS011;32048;49.902;22.508;2022-08-19T12:32:53;7.55;;;4.68;;
37633;SDS011;32048;49.902;22.508;2022-08-19T12:35:20;9.55;;;4.63;;
37633;SDS011;32048;49.902;22.508;2022-08-19T12:37:48;7.63;;;4.22;;
37633;SDS011;32048;49.902;22.508;2022-08-19T12:40:23;13.02;;;5.50;;
37633;SDS011;32048;49.902;22.508;2022-08-19T12:42:52;7.85;;;4.22;;
37633;SDS011;32048;49.902;22.508;2022-08-19T12:45:20;11.20;;;4.68;;
37633;SDS011;32048;49.902;22.508;2022-08-19T12:47:47;11.05;;;4.43;;
37633;SDS011;32048;49.902;22.508;2022-08-19T12:50:15;9.30;;;5.13;;
37633;SDS011;32048;49.902;22.508;2022-08-19T12:52:42;9.13;;;4.60;;
37633;SDS011;32048;49.902;22.508;2022-08-19T12:55:09;13.18;;;5.85;;
37633;SDS011;32048;49.902;22.508;2022-08-19T12:57:37;13.98;;;4.78;;
37633;SDS011;32048;49.902;22.508;2022-08-19T13:00:07;7.78;;;4.20;;
37633;SDS011;32048;49.902;22.508;2022-08-19T13:02:41;11.32;;;5.00;;
37633;SDS011;32048;49.902;22.508;2022-08-19T13:05:15;8.68;;;4.50;;
37633;SDS011;32048;49.902;22.508;2022-08-19T13:07:47;9.38;;;5.70;;
37633;SDS011;32048;49.902;22.508;2022-08-19T13:10:16;8.35;;;4.60;;
37633;SDS011;32048;49.902;22.508;2022-08-19T13:12:46;12.57;;;5.85;;
37633;SDS011;32048;49.902;22.508;2022-08-19T13:15:15;10.60;;;5.15;;
37633;SDS011;32048;49.902;22.508;2022-08-19T13:17:50;7.72;;;4.20;;
37633;SDS011;32048;49.902;22.508;2022-08-19T13:20:19;7.90;;;4.72;;
37633;SDS011;32048;49.902;22.508;2022-08-19T13:22:46;8.27;;;4.88;;
37633;SDS011;32048;49.902;22.508;2022-08-19T13:25:15;12.15;;;4.68;;
37633;SDS011;32048;49.902;22.508;2022-08-19T13:27:44;10.43;;;5.18;;
37633;SDS011;32048;49.902;22.508;2022-08-19T13:30:12;12.40;;;5.20;;
37633;SDS011;32048;49.902;22.508;2022-08-19T13:32:59;14.63;;;5.90;;
37633;SDS011;32048;49.902;22.508;2022-08-19T13:38:16;10.27;;;5.53;;
37633;SDS011;32048;49.902;22.508;2022-08-19T13:40:45;12.98;;;5.53;;
37633;SDS011;32048;49.902;22.508;2022-08-19T13:43:13;12.50;;;5.28;;
37633;SDS011;32048;49.902;22.508;2022-08-19T13:45:52;14.15;;;6.00;;
37633;SDS011;32048;49.902;22.508;2022-08-19T13:48:23;15.13;;;5.63;;
37633;SDS011;32048;49.902;22.508;2022-08-19T13:50:54;12.15;;;5.20;;
37633;SDS011;32048;49.902;22.508;2022-08-19T13:53:21;8.23;;;4.63;;
37633;SDS011;32048;49.902;22.508;2022-08-19T13:55:48;14.07;;;5.70;;
37633;SDS011;32048;49.902;22.508;2022-08-19T14:00:44;15.35;;;5.88;;
37633;SDS011;32048;49.902;22.508;2022-08-19T14:03:12;19.77;;;5.53;;
37633;SDS011;32048;49.902;22.508;2022-08-19T14:05:40;13.27;;;5.07;;
37633;SDS011;32048;49.902;22.508;2022-08-19T14:08:07;14.40;;;5.78;;
37633;SDS011;32048;49.902;22.508;2022-08-19T14:10:35;18.95;;;6.07;;
37633;SDS011;32048;49.902;22.508;2022-08-19T14:13:02;19.15;;;5.30;;
37633;SDS011;32048;49.902;22.508;2022-08-19T14:15:30;15.75;;;4.78;;
37633;SDS011;32048;49.902;22.508;2022-08-19T14:17:58;13.00;;;4.95;;
37633;SDS011;32048;49.902;22.508;2022-08-19T14:20:25;15.75;;;5.20;;
37633;SDS011;32048;49.902;22.508;2022-08-19T14:22:52;11.38;;;4.70;;
37633;SDS011;32048;49.902;22.508;2022-08-19T14:25:22;23.95;;;5.10;;
37633;SDS011;32048;49.902;22.508;2022-08-19T14:27:52;23.58;;;5.80;;
37633;SDS011;32048;49.902;22.508;2022-08-19T14:30:21;17.13;;;5.82;;
37633;SDS011;32048;49.902;22.508;2022-08-19T14:32:54;17.30;;;5.28;;
37633;SDS011;32048;49.902;22.508;2022-08-19T14:35:22;18.27;;;6.55;;
37633;SDS011;32048;49.902;22.508;2022-08-19T14:37:49;19.23;;;6.40;;
37633;SDS011;32048;49.902;22.508;2022-08-19T14:40:21;12.43;;;5.07;;
37633;SDS011;32048;49.902;22.508;2022-08-19T14:42:53;15.23;;;5.70;;
37633;SDS011;32048;49.902;22.508;2022-08-19T14:45:27;13.25;;;5.15;;
37633;SDS011;32048;49.902;22.508;2022-08-19T14:50:22;11.45;;;6.20;;
37633;SDS011;32048;49.902;22.508;2022-08-19T14:52:49;13.35;;;5.43;;
37633;SDS011;32048;49.902;22.508;2022-08-19T14:55:17;15.30;;;5.80;;
37633;SDS011;32048;49.902;22.508;2022-08-19T14:57:44;12.18;;;5.13;;
37633;SDS011;32048;49.902;22.508;2022-08-19T15:00:12;16.02;;;5.38;;
37633;SDS011;32048;49.902;22.508;2022-08-19T15:02:40;14.47;;;6.40;;
37633;SDS011;32048;49.902;22.508;2022-08-19T15:05:10;14.45;;;5.35;;
37633;SDS011;32048;49.902;22.508;2022-08-19T15:07:38;16.73;;;5.65;;
37633;SDS011;32048;49.902;22.508;2022-08-19T15:10:06;12.63;;;4.83;;
37633;SDS011;32048;49.902;22.508;2022-08-19T15:12:34;12.93;;;4.10;;